Time;durP1;ratioP1;P1;durP2;ratioP2;P2;SDS_P1;SDS_P2;PMS_P1;PMS_P2;Temp;Humidity;BMP_temperature;BMP_pressure;BME280_temperature;BME280_humidity;BME280_pressure;Samples;Min_cycle;Max_cycle;Signal;HPM_P1;HPM_P2
2021/01/24 00:02:05;;;;;;;1.70;1.45;;;4.90;99.90;;;;;;5092540;28;20062;-78
2021/01/24 00:04:31;;;;;;;1.77;1.40;;;4.90;99.90;;;;;;5089605;28;20016;-78
2021/01/24 00:06:58;;;;;;;1.40;1.30;;;4.90;99.90;;;;;;5078681;28;20085;-79
2021/01/24 00:09:29;;;;;;;1.27;1.17;;;5.00;99.90;;;;;;5108835;28;20019;-79
2021/01/24 00:11:55;;;;;;;2.15;1.38;;;4.90;99.90;;;;;;5097582;28;20024;-80
2021/01/24 00:14:21;;;;;;;1.50;1.38;;;4.90;99.90;;;;;;5068384;28;20024;-79
2021/01/24 00:16:46;;;;;;;1.65;1.30;;;4.80;99.90;;;;;;5065329;28;20036;-79
2021/01/24 00:19:12;;;;;;;1.25;1.20;;;4.80;99.90;;;;;;5084799;28;20058;-79
2021/01/24 00:21:38;;;;;;;1.30;1.17;;;4.80;99.90;;;;;;5099030;28;20035;-80
2021/01/24 00:24:05;;;;;;;1.95;1.45;;;4.70;99.90;;;;;;5077892;28;20041;-79
2021/01/24 00:26:30;;;;;;;4.00;1.40;;;4.70;99.90;;;;;;5078162;28;20023;-80
2021/01/24 00:28:56;;;;;;;1.40;1.30;;;4.70;99.90;;;;;;5093038;28;20029;-80
2021/01/24 00:31:22;;;;;;;1.40;1.30;;;4.70;99.90;;;;;;5093830;28;20040;-79
2021/01/24 00:33:47;;;;;;;4.68;1.40;;;4.70;99.90;;;;;;5062457;28;20047;-79
2021/01/24 00:36:15;;;;;;;2.03;1.40;;;4.70;99.90;;;;;;5055725;28;20028;-79
2021/01/24 00:38:42;;;;;;;2.38;1.70;;;4.60;99.90;;;;;;5056018;28;20525;-80
2021/01/24 00:41:08;;;;;;;2.72;1.20;;;4.60;99.90;;;;;;5074329;28;20112;-79
2021/01/24 00:43:34;;;;;;;1.98;1.67;;;4.60;99.90;;;;;;5089579;28;20501;-79
2021/01/24 00:46:00;;;;;;;1.98;1.60;;;4.60;99.90;;;;;;5076604;28;20020;-79
2021/01/24 00:48:26;;;;;;;4.93;2.78;;;4.70;99.90;;;;;;5094005;28;20058;-80
2021/01/24 00:50:52;;;;;;;1.35;1.23;;;4.60;99.90;;;;;;5076162;28;20131;-79
2021/01/24 00:53:18;;;;;;;3.20;1.08;;;4.60;99.90;;;;;;5094864;28;20375;-80
2021/01/24 00:55:45;;;;;;;2.22;1.23;;;4.60;99.90;;;;;;5094725;28;20028;-79
2021/01/24 00:58:11;;;;;;;2.38;1.30;;;4.60;99.90;;;;;;5090260;28;20033;-79
2021/01/24 01:00:37;;;;;;;1.25;1.10;;;4.70;99.90;;;;;;5074498;28;20020;-79
2021/01/24 01:03:03;;;;;;;2.20;1.00;;;4.70;99.90;;;;;;5074480;28;20078;-79
2021/01/24 01:05:29;;;;;;;4.13;1.35;;;4.60;99.90;;;;;;5074387;28;20024;-79
2021/01/24 01:07:54;;;;;;;2.97;1.20;;;4.60;99.90;;;;;;5073905;28;20447;-79
2021/01/24 01:10:20;;;;;;;2.08;0.90;;;4.60;99.90;;;;;;5056413;28;20032;-79
2021/01/24 01:12:46;;;;;;;1.40;1.30;;;4.70;99.90;;;;;;5056280;28;20024;-79
2021/01/24 01:15:12;;;;;;;2.63;1.17;;;4.70;99.90;;;;;;5056131;28;20043;-80
2021/01/24 01:17:38;;;;;;;2.15;1.35;;;4.70;99.90;;;;;;5074110;28;20032;-79
2021/01/24 01:20:04;;;;;;;1.90;1.65;;;4.70;99.90;;;;;;5076241;28;20028;-80
2021/01/24 01:22:29;;;;;;;0.80;0.80;;;4.70;99.90;;;;;;5075518;28;20024;-80
2021/01/24 01:24:55;;;;;;;3.08;1.10;;;4.70;99.90;;;;;;5076091;28;20032;-80
2021/01/24 01:27:21;;;;;;;0.85;0.80;;;4.70;99.90;;;;;;5076185;28;20058;-79
2021/01/24 01:29:46;;;;;;;2.65;0.90;;;4.70;99.90;;;;;;5076013;28;20053;-80
2021/01/24 01:32:12;;;;;;;1.98;1.20;;;4.70;99.90;;;;;;5093846;28;20035;-80
2021/01/24 01:34:38;;;;;;;1.75;1.02;;;4.70;99.90;;;;;;5077200;28;20028;-80
2021/01/24 01:37:03;;;;;;;1.90;1.30;;;4.70;99.90;;;;;;5073599;28;20035;-79
2021/01/24 01:39:29;;;;;;;0.88;0.88;;;4.70;99.90;;;;;;5066202;28;20111;-80
2021/01/24 01:41:55;;;;;;;2.72;1.55;;;4.80;99.90;;;;;;5093882;28;20016;-79
2021/01/24 01:44:20;;;;;;;1.30;1.20;;;4.80;99.90;;;;;;5093889;28;20028;-80
2021/01/24 01:46:47;;;;;;;2.25;1.15;;;4.80;99.90;;;;;;5093826;28;20020;-79
2021/01/24 01:49:16;;;;;;;2.72;1.10;;;4.80;99.90;;;;;;5075429;28;20554;-80
2021/01/24 01:51:41;;;;;;;1.08;1.00;;;4.80;99.90;;;;;;5061130;28;20403;-79
2021/01/24 01:54:07;;;;;;;1.33;1.23;;;4.70;99.90;;;;;;5071966;28;20035;-79
2021/01/24 01:56:33;;;;;;;1.50;1.13;;;4.70;99.90;;;;;;5055469;28;20500;-80
2021/01/24 01:58:58;;;;;;;1.10;1.00;;;4.70;99.90;;;;;;5073150;28;20028;-79
2021/01/24 02:01:32;;;;;;;5.10;1.40;;;4.70;99.90;;;;;;5073344;28;20386;-79
2021/01/24 02:04:14;;;;;;;0.80;0.80;;;4.70;99.90;;;;;;5073215;28;20025;-79
2021/01/24 02:06:56;;;;;;;1.15;1.08;;;4.70;99.90;;;;;;5055372;28;20174;-80
2021/01/24 02:09:36;;;;;;;1.40;1.30;;;4.60;99.90;;;;;;5055333;28;20095;-79
2021/01/24 02:12:22;;;;;;;1.35;1.02;;;4.60;99.90;;;;;;5073249;28;20040;-80
2021/01/24 02:15:08;;;;;;;1.42;1.33;;;4.60;99.90;;;;;;5055065;28;20029;-79
2021/01/24 02:17:43;;;;;;;1.63;1.02;;;4.70;99.90;;;;;;5072986;28;20064;-79
2021/01/24 02:20:29;;;;;;;1.88;0.90;;;4.60;99.90;;;;;;5092109;28;20047;-79
2021/01/24 02:22:55;;;;;;;1.88;1.23;;;4.70;99.90;;;;;;5089328;28;20517;-80
2021/01/24 02:25:30;;;;;;;1.27;0.80;;;4.70;99.90;;;;;;5075921;28;20024;-79
2021/01/24 02:28:37;;;;;;;6.80;1.20;;;4.70;99.90;;;;;;5071849;28;20028;-79
2021/01/24 02:31:04;;;;;;;1.23;1.13;;;4.70;99.90;;;;;;5059781;28;20032;-79
2021/01/24 02:33:33;;;;;;;2.92;1.80;;;4.70;99.90;;;;;;5093125;28;20027;-79
2021/01/24 02:36:00;;;;;;;2.88;1.33;;;4.70;99.90;;;;;;5091089;28;20029;-80
2021/01/24 02:38:26;;;;;;;0.73;0.73;;;4.60;99.90;;;;;;5074779;28;20481;-80
2021/01/24 02:40:54;;;;;;;1.20;1.00;;;4.60;99.90;;;;;;5092978;28;20051;-79
2021/01/24 02:43:20;;;;;;;1.08;0.98;;;4.60;99.90;;;;;;5092854;28;20042;-79
2021/01/24 02:45:50;;;;;;;2.30;1.55;;;4.60;99.90;;;;;;5092027;28;20024;-79
2021/01/24 02:48:17;;;;;;;1.55;0.90;;;4.60;99.90;;;;;;5074854;28;20543;-79
2021/01/24 02:50:45;;;;;;;1.40;0.90;;;4.60;99.90;;;;;;5063519;28;20032;-80
2021/01/24 02:53:13;;;;;;;1.05;0.98;;;4.60;99.90;;;;;;5072804;28;20482;-79
2021/01/24 02:55:39;;;;;;;1.25;1.02;;;4.60;99.90;;;;;;5054712;28;20025;-80
2021/01/24 02:58:05;;;;;;;3.13;1.10;;;4.60;99.90;;;;;;5054922;28;20029;-80
2021/01/24 03:00:31;;;;;;;0.70;0.70;;;4.60;99.90;;;;;;5054717;28;20028;-80
2021/01/24 03:02:57;;;;;;;1.25;0.80;;;4.60;99.90;;;;;;5079126;28;20539;-80
2021/01/24 03:05:25;;;;;;;0.93;0.70;;;4.70;99.90;;;;;;5073836;28;20052;-79
2021/01/24 03:07:53;;;;;;;1.10;0.75;;;4.60;99.90;;;;;;5073271;28;20024;-79
2021/01/24 03:10:19;;;;;;;1.95;0.80;;;4.60;99.90;;;;;;5092472;28;20024;-80
2021/01/24 03:13:07;;;;;;;0.90;0.90;;;4.60;99.90;;;;;;5071570;28;20035;-80
2021/01/24 03:15:34;;;;;;;0.90;0.90;;;4.60;99.90;;;;;;5058501;28;20025;-79
2021/01/24 03:18:01;;;;;;;0.90;0.90;;;4.70;99.90;;;;;;5063210;28;20412;-79
2021/01/24 03:20:29;;;;;;;1.33;0.98;;;4.60;99.90;;;;;;5096618;28;20370;-79
2021/01/24 03:22:56;;;;;;;1.50;1.00;;;4.60;99.90;;;;;;5096491;28;20040;-80
2021/01/24 03:25:24;;;;;;;1.15;1.15;;;4.60;99.90;;;;;;5078379;28;20103;-79
2021/01/24 03:27:49;;;;;;;2.35;1.08;;;4.60;99.90;;;;;;5095783;28;20085;-79
2021/01/24 03:30:16;;;;;;;1.23;1.13;;;4.50;99.90;;;;;;5070946;28;20025;-80
2021/01/24 03:32:42;;;;;;;0.90;0.90;;;4.50;99.90;;;;;;5058285;28;20032;-79
2021/01/24 03:35:08;;;;;;;1.67;0.90;;;4.50;99.90;;;;;;5070648;28;20032;-79
2021/01/24 03:37:33;;;;;;;1.57;1.00;;;4.60;99.90;;;;;;5078115;28;20127;-80
2021/01/24 03:39:59;;;;;;;0.93;0.80;;;4.60;99.90;;;;;;5078082;28;20020;-79
2021/01/24 03:42:28;;;;;;;1.05;0.90;;;4.60;99.90;;;;;;5077160;28;20025;-80
2021/01/24 03:44:53;;;;;;;1.20;1.10;;;4.60;99.90;;;;;;5058030;28;20486;-78
2021/01/24 03:47:19;;;;;;;1.25;1.05;;;4.60;99.90;;;;;;5058067;28;20044;-79
2021/01/24 03:49:45;;;;;;;2.78;1.02;;;4.60;99.90;;;;;;5085598;28;20382;-79
2021/01/24 03:52:10;;;;;;;0.98;0.90;;;4.50;99.90;;;;;;5077470;28;20596;-79
2021/01/24 03:54:36;;;;;;;0.93;0.90;;;4.50;99.90;;;;;;5077853;28;20056;-79
2021/01/24 03:57:01;;;;;;;0.80;0.80;;;4.50;99.90;;;;;;5077746;28;20074;-80
2021/01/24 03:59:27;;;;;;;1.23;1.10;;;4.50;99.90;;;;;;5058119;28;20422;-79
2021/01/24 04:01:53;;;;;;;2.95;0.70;;;4.50;99.90;;;;;;5075668;28;20052;-79
2021/01/24 04:04:18;;;;;;;3.70;1.33;;;4.60;99.90;;;;;;5068557;28;20101;-80
2021/01/24 04:06:44;;;;;;;0.88;0.88;;;4.60;99.90;;;;;;5057699;28;20025;-79
2021/01/24 04:09:09;;;;;;;2.20;0.77;;;4.60;99.90;;;;;;5086134;28;20028;-80
2021/01/24 04:11:35;;;;;;;1.08;0.98;;;4.60;99.90;;;;;;5097830;28;20433;-80
2021/01/24 04:14:01;;;;;;;1.13;1.13;;;4.50;99.90;;;;;;5097831;28;20516;-79
2021/01/24 04:16:27;;;;;;;1.13;0.80;;;4.50;99.90;;;;;;5097848;28;20032;-80
2021/01/24 04:18:53;;;;;;;0.90;0.90;;;4.50;99.90;;;;;;5115882;28;20080;-79
2021/01/24 04:21:18;;;;;;;1.58;1.15;;;4.50;99.90;;;;;;5106661;28;20024;-79
2021/01/24 04:23:44;;;;;;;1.58;0.77;;;4.50;99.90;;;;;;5094446;28;20093;-80
2021/01/24 04:26:10;;;;;;;1.42;1.20;;;4.40;99.90;;;;;;5095275;28;20020;-79
2021/01/24 04:28:35;;;;;;;0.65;0.65;;;4.40;99.90;;;;;;5077142;28;20050;-79
2021/01/24 04:31:01;;;;;;;1.10;1.00;;;4.40;99.90;;;;;;5077296;28;20058;-79
2021/01/24 04:33:27;;;;;;;2.38;0.93;;;4.30;99.90;;;;;;5077243;28;20035;-79
2021/01/24 04:35:53;;;;;;;1.08;0.98;;;4.30;99.90;;;;;;5077101;28;20031;-79
2021/01/24 04:38:18;;;;;;;0.80;0.80;;;4.30;99.90;;;;;;5076960;28;20028;-80
2021/01/24 04:40:44;;;;;;;1.33;1.10;;;4.30;99.90;;;;;;5077029;28;20020;-80
2021/01/24 04:43:11;;;;;;;0.90;0.90;;;4.30;99.90;;;;;;5095024;28;20020;-80
2021/01/24 04:45:37;;;;;;;1.23;1.00;;;4.30;99.90;;;;;;5076748;28;20021;-80
2021/01/24 04:48:03;;;;;;;0.95;0.95;;;4.40;99.90;;;;;;5076700;28;20028;-79
2021/01/24 04:50:31;;;;;;;1.35;0.98;;;4.40;99.90;;;;;;5076917;28;20047;-80
2021/01/24 04:52:57;;;;;;;1.75;1.02;;;4.40;99.90;;;;;;5094972;28;20028;-80
2021/01/24 04:55:23;;;;;;;1.00;1.00;;;4.40;99.90;;;;;;5076007;28;20654;-80
2021/01/24 04:57:51;;;;;;;0.90;0.90;;;4.40;99.90;;;;;;5076692;28;20393;-80
2021/01/24 05:00:17;;;;;;;2.35;0.98;;;4.40;99.90;;;;;;5076534;28;20028;-79
2021/01/24 05:02:43;;;;;;;2.85;1.52;;;4.40;99.90;;;;;;5094722;28;20031;-80
2021/01/24 05:05:10;;;;;;;1.08;0.95;;;4.40;99.90;;;;;;5076556;28;20020;-80
2021/01/24 05:07:35;;;;;;;2.17;0.95;;;4.40;99.90;;;;;;5076446;28;20530;-80
2021/01/24 05:10:03;;;;;;;1.17;1.08;;;4.40;99.90;;;;;;5071923;28;20036;-79
2021/01/24 05:12:29;;;;;;;0.90;0.80;;;4.40;99.90;;;;;;5056320;28;20028;-79
2021/01/24 05:14:58;;;;;;;1.38;1.17;;;4.30;99.90;;;;;;5056045;28;20534;-80
2021/01/24 05:17:25;;;;;;;1.10;1.00;;;4.40;99.90;;;;;;5056115;28;20028;-79
2021/01/24 05:19:52;;;;;;;2.30;1.05;;;4.30;99.90;;;;;;5056225;28;20021;-79
2021/01/24 05:22:17;;;;;;;1.10;1.00;;;4.30;99.90;;;;;;5055985;28;20410;-79
2021/01/24 05:24:43;;;;;;;2.78;1.20;;;4.30;99.90;;;;;;5073966;28;20161;-80
2021/01/24 05:27:12;;;;;;;1.52;1.38;;;4.30;99.90;;;;;;5056168;28;20040;-79
2021/01/24 05:29:43;;;;;;;1.58;1.30;;;4.20;99.90;;;;;;5066917;28;20623;-79
2021/01/24 05:32:10;;;;;;;1.45;1.35;;;4.10;99.90;;;;;;5074688;28;20104;-80
2021/01/24 05:34:36;;;;;;;1.35;1.20;;;4.10;99.90;;;;;;5075464;28;20020;-79
2021/01/24 05:37:03;;;;;;;4.45;1.10;;;4.10;99.90;;;;;;5075975;28;20111;-79
2021/01/24 05:39:31;;;;;;;2.47;1.20;;;4.00;99.90;;;;;;5073967;28;20040;-80
2021/01/24 05:41:58;;;;;;;1.00;0.90;;;4.00;99.90;;;;;;5055788;28;20112;-79
2021/01/24 05:44:25;;;;;;;6.30;1.13;;;4.00;99.90;;;;;;5061837;28;20127;-79
2021/01/24 05:47:01;;;;;;;1.50;1.10;;;4.00;99.90;;;;;;5072384;28;20031;-80
2021/01/24 05:49:33;;;;;;;1.00;0.82;;;4.00;99.90;;;;;;5073674;28;20532;-79
2021/01/24 05:52:04;;;;;;;1.42;1.33;;;4.00;99.90;;;;;;5066161;28;20032;-80
2021/01/24 05:54:41;;;;;;;4.32;1.13;;;4.00;99.90;;;;;;5055643;28;20059;-79
2021/01/24 05:57:08;;;;;;;1.07;1.00;;;3.90;99.90;;;;;;5055499;28;20086;-80
2021/01/24 05:59:51;;;;;;;5.80;1.02;;;3.90;99.90;;;;;;5073406;28;20017;-79
2021/01/24 06:02:19;;;;;;;1.13;1.02;;;3.90;99.90;;;;;;5078145;28;20069;-80
2021/01/24 06:04:45;;;;;;;1.20;1.10;;;3.80;99.90;;;;;;5075030;28;20431;-79
2021/01/24 06:07:12;;;;;;;1.38;1.27;;;3.80;99.90;;;;;;5108275;28;20024;-79
2021/01/24 06:09:38;;;;;;;1.95;0.90;;;3.80;99.90;;;;;;5113853;28;20638;-80
2021/01/24 06:12:06;;;;;;;1.20;1.10;;;3.80;99.90;;;;;;5113788;28;20023;-80
2021/01/24 06:14:34;;;;;;;3.90;1.37;;;3.80;99.90;;;;;;5077927;28;20040;-80
2021/01/24 06:17:04;;;;;;;4.53;1.17;;;3.80;99.90;;;;;;5071923;28;20054;-79
2021/01/24 06:19:40;;;;;;;1.73;1.40;;;3.80;99.90;;;;;;5075013;28;20032;-80
2021/01/24 06:22:12;;;;;;;1.13;0.93;;;3.80;99.90;;;;;;5092719;28;20016;-80
2021/01/24 06:24:42;;;;;;;1.05;1.05;;;3.70;99.90;;;;;;5054872;28;20398;-80
2021/01/24 06:27:10;;;;;;;1.45;1.35;;;3.70;99.90;;;;;;5055102;28;20107;-80
2021/01/24 06:29:39;;;;;;;2.27;1.23;;;3.80;99.90;;;;;;5055027;28;20115;-80
2021/01/24 06:32:05;;;;;;;4.40;2.53;;;3.80;99.90;;;;;;5072965;28;20494;-80
2021/01/24 06:34:39;;;;;;;3.10;2.50;;;3.80;99.90;;;;;;5064181;28;20035;-79
2021/01/24 06:37:10;;;;;;;2.83;2.37;;;3.80;99.90;;;;;;5056422;28;20031;-80
2021/01/24 06:39:48;;;;;;;2.85;2.20;;;3.80;99.90;;;;;;5078420;28;20028;-80
2021/01/24 06:42:42;;;;;;;2.23;2.00;;;3.80;99.90;;;;;;5094649;28;20068;-79
2021/01/24 06:45:28;;;;;;;2.40;1.33;;;3.80;99.90;;;;;;5094271;28;20430;-79
2021/01/24 06:47:56;;;;;;;2.77;2.07;;;3.80;99.90;;;;;;5092963;28;20068;-80
2021/01/24 06:50:43;;;;;;;2.85;1.95;;;3.80;99.90;;;;;;5095025;28;20381;-79
2021/01/24 06:53:18;;;;;;;2.57;2.00;;;3.90;99.90;;;;;;5113147;28;20035;-80
2021/01/24 06:56:05;;;;;;;4.57;2.30;;;3.80;99.90;;;;;;5113134;28;20035;-79
2021/01/24 06:58:36;;;;;;;3.72;3.28;;;3.60;99.90;;;;;;5113161;28;20105;-80
2021/01/24 07:01:20;;;;;;;4.15;3.63;;;3.60;99.90;;;;;;5113188;28;20020;-80
2021/01/24 07:03:46;;;;;;;4.10;3.70;;;3.60;99.90;;;;;;5094104;28;20122;-79
2021/01/24 07:06:34;;;;;;;3.87;3.57;;;3.60;99.90;;;;;;5073899;28;20123;-79
2021/01/24 07:09:00;;;;;;;3.60;2.90;;;3.60;99.90;;;;;;5092779;28;20020;-79
2021/01/24 07:11:49;;;;;;;3.60;3.30;;;3.50;99.90;;;;;;5111052;28;20037;-80
2021/01/24 07:14:36;;;;;;;3.73;2.60;;;3.60;99.90;;;;;;5094712;28;20081;-80
2021/01/24 07:17:09;;;;;;;4.73;3.40;;;3.60;99.90;;;;;;5094730;28;20185;-79
2021/01/24 07:19:46;;;;;;;3.83;3.13;;;3.60;99.90;;;;;;5077492;28;20121;-80
2021/01/24 07:22:14;;;;;;;3.60;3.13;;;3.60;99.90;;;;;;5091792;28;20486;-80
2021/01/24 07:24:41;;;;;;;3.00;2.80;;;3.70;99.90;;;;;;5073487;28;20040;-79
2021/01/24 07:27:12;;;;;;;6.53;3.20;;;3.70;99.90;;;;;;5091177;28;20031;-80
2021/01/24 07:29:38;;;;;;;3.13;2.83;;;3.70;99.90;;;;;;5092736;28;20111;-80
2021/01/24 07:32:08;;;;;;;3.37;3.07;;;3.70;99.90;;;;;;5059324;28;20032;-80
2021/01/24 07:34:35;;;;;;;3.20;2.90;;;3.80;99.90;;;;;;5054428;28;20390;-80
2021/01/24 07:37:01;;;;;;;2.92;2.70;;;3.80;99.90;;;;;;5072793;28;20482;-80
2021/01/24 07:39:29;;;;;;;5.18;3.97;;;3.90;99.90;;;;;;5092429;28;20024;-80
2021/01/24 07:41:55;;;;;;;4.20;3.80;;;4.00;99.90;;;;;;5074593;28;20074;-79
2021/01/24 07:44:21;;;;;;;4.40;4.07;;;4.00;99.90;;;;;;5074408;28;20024;-80
2021/01/24 07:46:47;;;;;;;11.37;5.10;;;4.00;99.90;;;;;;5092499;28;20047;-80
2021/01/24 07:49:13;;;;;;;7.17;5.63;;;3.90;99.90;;;;;;5074410;28;20127;-80
2021/01/24 07:51:38;;;;;;;8.77;5.00;;;3.90;99.90;;;;;;5092032;28;20041;-80
2021/01/24 07:54:04;;;;;;;12.90;6.35;;;3.90;99.90;;;;;;5092284;28;20105;-79
2021/01/24 07:56:30;;;;;;;13.10;7.97;;;3.90;99.90;;;;;;5075068;28;20028;-80
2021/01/24 07:58:56;;;;;;;8.65;6.55;;;3.90;99.90;;;;;;5074065;28;20028;-79
2021/01/24 08:01:22;;;;;;;12.47;6.53;;;4.00;99.90;;;;;;5075733;28;20067;-80
2021/01/24 08:03:48;;;;;;;11.95;6.10;;;4.00;99.90;;;;;;5072468;28;20047;-80
2021/01/24 08:06:14;;;;;;;8.67;6.57;;;4.00;99.90;;;;;;5077621;28;20477;-79
2021/01/24 08:08:45;;;;;;;18.08;11.30;;;4.00;99.90;;;;;;5057839;28;20482;-79
2021/01/24 08:11:11;;;;;;;21.55;12.60;;;4.10;99.90;;;;;;5057341;28;20581;-79
2021/01/24 08:13:38;;;;;;;19.17;9.80;;;4.10;99.90;;;;;;5069773;28;20099;-80
2021/01/24 08:16:11;;;;;;;11.18;7.78;;;4.10;99.90;;;;;;5077367;28;20024;-80
2021/01/24 08:18:39;;;;;;;11.40;6.85;;;4.10;99.90;;;;;;5095642;28;20030;-80
2021/01/24 08:21:05;;;;;;;8.60;6.40;;;4.20;99.90;;;;;;5057908;28;20115;-79
2021/01/24 08:23:31;;;;;;;6.70;5.03;;;4.20;99.90;;;;;;5057018;28;20083;-80
2021/01/24 08:25:58;;;;;;;7.53;5.75;;;4.20;99.90;;;;;;5057235;28;20074;-79
2021/01/24 08:28:26;;;;;;;14.30;7.38;;;4.20;99.90;;;;;;5074963;28;20038;-80
2021/01/24 08:30:52;;;;;;;9.40;5.60;;;4.20;99.90;;;;;;5057313;28;20283;-80
2021/01/24 08:33:19;;;;;;;8.85;6.95;;;4.30;99.90;;;;;;5075129;28;20035;-80
2021/01/24 08:35:48;;;;;;;7.20;5.32;;;4.40;99.90;;;;;;5057004;28;20502;-79
2021/01/24 08:38:14;;;;;;;5.43;4.90;;;4.50;99.90;;;;;;5067960;28;20129;-79
2021/01/24 08:40:40;;;;;;;5.10;3.35;;;4.50;99.90;;;;;;5077101;28;20512;-80
2021/01/24 08:43:08;;;;;;;4.65;3.25;;;4.50;99.90;;;;;;5072397;28;20078;-79
2021/01/24 08:45:34;;;;;;;4.63;3.00;;;4.60;99.90;;;;;;5054729;28;20037;-79
2021/01/24 08:48:05;;;;;;;3.92;3.42;;;4.60;99.90;;;;;;5065975;28;20058;-79
2021/01/24 08:50:39;;;;;;;3.70;3.40;;;4.60;99.90;;;;;;5070493;28;20043;-80
2021/01/24 08:53:06;;;;;;;4.63;3.33;;;4.70;99.90;;;;;;5076325;28;20028;-79
2021/01/24 08:55:49;;;;;;;4.93;4.32;;;4.70;99.90;;;;;;5094247;28;20034;-80
2021/01/24 08:58:28;;;;;;;4.97;4.47;;;4.80;99.90;;;;;;5071938;28;20016;-80
2021/01/24 09:01:09;;;;;;;6.55;4.57;;;4.90;99.90;;;;;;5087718;28;20020;-80
2021/01/24 09:03:35;;;;;;;11.00;7.60;;;4.90;99.90;;;;;;5060740;28;20483;-79
2021/01/24 09:06:17;;;;;;;13.60;8.43;;;4.90;99.90;;;;;;5092344;28;20024;-80
2021/01/24 09:08:49;;;;;;;15.40;9.85;;;4.90;99.90;;;;;;5061413;28;20033;-80
2021/01/24 09:11:18;;;;;;;13.50;8.73;;;4.90;99.90;;;;;;5074784;28;20024;-79
2021/01/24 09:13:43;;;;;;;11.48;8.05;;;4.90;99.90;;;;;;5086911;28;20029;-79
2021/01/24 09:16:09;;;;;;;11.38;7.75;;;5.00;99.90;;;;;;5056434;28;20085;-79
2021/01/24 09:18:35;;;;;;;12.23;9.25;;;5.00;99.90;;;;;;5064671;28;20039;-79
2021/01/24 09:21:03;;;;;;;22.38;13.40;;;5.00;99.90;;;;;;5063745;28;20039;-79
2021/01/24 09:23:28;;;;;;;17.67;12.30;;;5.10;99.90;;;;;;5064812;28;20079;-80
2021/01/24 09:25:54;;;;;;;26.23;15.65;;;5.10;99.90;;;;;;5039739;28;20029;-80
2021/01/24 09:28:20;;;;;;;24.52;14.70;;;5.10;99.90;;;;;;5066303;28;20029;-79
2021/01/24 09:30:46;;;;;;;14.68;10.25;;;5.20;99.90;;;;;;5058995;28;20111;-80
2021/01/24 09:33:12;;;;;;;14.63;10.10;;;5.30;99.90;;;;;;5062070;28;20028;-79
2021/01/24 09:35:38;;;;;;;20.48;12.40;;;5.30;99.90;;;;;;5089784;28;20497;-80
2021/01/24 09:38:07;;;;;;;21.00;13.98;;;5.30;99.90;;;;;;5060996;28;20489;-79
2021/01/24 09:40:36;;;;;;;18.33;11.73;;;5.40;99.90;;;;;;5077365;28;20032;-79
2021/01/24 09:43:02;;;;;;;25.98;13.43;;;5.40;99.90;;;;;;5089273;28;20363;-80
2021/01/24 09:45:27;;;;;;;18.88;10.93;;;5.40;99.90;;;;;;5087460;28;20023;-80
2021/01/24 09:47:54;;;;;;;10.75;8.38;;;5.50;99.90;;;;;;5048643;28;20474;-80
2021/01/24 09:50:22;;;;;;;8.32;6.80;;;5.50;99.90;;;;;;5073170;28;20025;-79
2021/01/24 09:52:48;;;;;;;10.52;8.20;;;5.60;99.90;;;;;;5054415;28;20028;-79
2021/01/24 09:55:13;;;;;;;10.85;7.72;;;5.60;99.90;;;;;;5053192;28;20029;-79
2021/01/24 09:57:39;;;;;;;12.07;6.93;;;5.60;99.90;;;;;;5055354;28;20782;-79
2021/01/24 10:00:06;;;;;;;8.13;6.55;;;5.70;99.90;;;;;;5035133;28;20025;-79
2021/01/24 10:02:32;;;;;;;10.00;7.28;;;5.70;99.90;;;;;;5040239;28;20176;-79
2021/01/24 10:04:58;;;;;;;13.82;8.70;;;5.70;99.90;;;;;;5038002;28;20154;-79
2021/01/24 10:07:23;;;;;;;11.38;8.27;;;5.80;99.90;;;;;;5068037;28;20028;-79
2021/01/24 10:09:49;;;;;;;13.45;10.07;;;5.80;99.90;;;;;;5069793;28;20066;-79
2021/01/24 10:12:15;;;;;;;13.48;9.25;;;5.80;99.90;;;;;;5049171;28;20021;-78
2021/01/24 10:14:40;;;;;;;14.77;9.30;;;5.90;99.90;;;;;;5052835;28;20029;-79
2021/01/24 10:17:06;;;;;;;11.88;8.38;;;5.90;99.90;;;;;;5050550;28;20020;-79
2021/01/24 10:19:32;;;;;;;14.88;10.25;;;6.00;99.90;;;;;;5087182;28;20071;-79
2021/01/24 10:21:57;;;;;;;13.00;9.57;;;6.00;99.90;;;;;;5047556;28;20021;-79
2021/01/24 10:24:23;;;;;;;14.05;9.73;;;6.10;99.90;;;;;;5032280;28;20044;-80
2021/01/24 10:26:48;;;;;;;16.50;9.73;;;6.10;99.90;;;;;;5048307;28;20071;-80
2021/01/24 10:29:14;;;;;;;16.67;9.88;;;6.20;99.90;;;;;;5035378;28;20036;-80
2021/01/24 10:31:40;;;;;;;15.38;11.00;;;6.20;99.90;;;;;;5053305;28;20078;-80
2021/01/24 10:34:06;;;;;;;7.47;5.13;;;6.30;99.90;;;;;;5053838;28;20050;-84
2021/01/24 10:36:39;;;;;;;21.23;12.00;;;6.90;99.90;;;;;;5049183;28;20048;-79
2021/01/24 10:39:08;;;;;;;13.88;9.95;;;6.90;99.90;;;;;;5051831;28;20102;-78
2021/01/24 10:41:33;;;;;;;19.60;10.50;;;6.70;99.90;;;;;;5049050;28;20052;-77
2021/01/24 10:44:00;;;;;;;15.15;10.13;;;6.60;99.90;;;;;;5074457;28;20185;-77
2021/01/24 10:46:25;;;;;;;14.32;10.05;;;6.60;99.90;;;;;;5042210;28;20495;-77
2021/01/24 10:48:51;;;;;;;15.18;10.02;;;6.60;99.90;;;;;;5075838;28;20102;-76
2021/01/24 10:51:16;;;;;;;14.52;10.18;;;6.60;99.90;;;;;;5063953;28;20490;-76
2021/01/24 10:53:42;;;;;;;18.67;10.25;;;6.60;99.90;;;;;;5065913;28;20039;-77
2021/01/24 10:56:08;;;;;;;20.25;11.25;;;6.70;99.90;;;;;;5063395;28;20024;-76
2021/01/24 10:58:33;;;;;;;18.95;11.23;;;6.70;99.90;;;;;;5066335;28;20025;-77
2021/01/24 11:00:59;;;;;;;22.58;13.25;;;6.70;99.90;;;;;;5064857;28;20116;-77
2021/01/24 11:03:25;;;;;;;19.80;11.77;;;6.80;99.90;;;;;;5066293;28;20029;-77
2021/01/24 11:05:50;;;;;;;14.45;10.45;;;6.80;99.90;;;;;;5050911;28;20044;-76
2021/01/24 11:08:16;;;;;;;16.77;12.30;;;6.90;99.90;;;;;;5044820;28;20034;-76
2021/01/24 11:10:42;;;;;;;14.00;9.45;;;6.90;99.90;;;;;;5070927;28;20036;-77
2021/01/24 11:13:07;;;;;;;14.15;9.63;;;7.00;99.90;;;;;;5065010;28;20032;-76
2021/01/24 11:15:33;;;;;;;13.93;8.93;;;7.00;99.90;;;;;;5053510;28;20135;-76
2021/01/24 11:17:58;;;;;;;7.18;4.57;;;7.00;99.90;;;;;;5048287;28;20062;-77
2021/01/24 11:20:24;;;;;;;4.28;3.92;;;7.10;99.90;;;;;;5064462;28;20013;-77
2021/01/24 11:22:50;;;;;;;2.83;2.45;;;7.20;99.90;;;;;;5065898;28;20133;-77
2021/01/24 11:25:15;;;;;;;1.83;1.73;;;7.30;99.90;;;;;;5068668;28;20020;-77
2021/01/24 11:27:41;;;;;;;1.80;1.70;;;7.40;97.20;;;;;;5075522;28;20502;-77
2021/01/24 11:30:11;;;;;;;1.83;1.48;;;7.40;93.80;;;;;;5070713;28;20710;-76
2021/01/24 11:32:40;;;;;;;1.80;1.70;;;7.50;92.80;;;;;;5075561;28;20066;-77
2021/01/24 11:35:07;;;;;;;1.17;1.02;;;7.60;94.40;;;;;;5074787;28;20020;-77
2021/01/24 11:37:33;;;;;;;1.70;1.35;;;7.60;92.20;;;;;;5085452;28;20085;-77
2021/01/24 11:39:58;;;;;;;1.45;1.35;;;7.60;91.30;;;;;;5086949;28;20028;-77
2021/01/24 11:42:25;;;;;;;1.60;1.50;;;7.60;88.40;;;;;;5074925;28;20016;-77
2021/01/24 11:44:51;;;;;;;2.28;1.77;;;7.70;85.80;;;;;;5067060;28;20031;-77
2021/01/24 11:47:16;;;;;;;1.90;1.80;;;7.70;83.00;;;;;;5089528;28;20020;-77
2021/01/24 11:49:42;;;;;;;3.67;2.13;;;7.80;79.40;;;;;;5072704;28;20032;-77
2021/01/24 11:52:08;;;;;;;1.40;1.30;;;7.80;77.60;;;;;;5091692;28;20028;-77
2021/01/24 11:54:33;;;;;;;0.95;0.95;;;7.90;76.30;;;;;;5082489;28;20085;-77
2021/01/24 11:56:59;;;;;;;0.85;0.85;;;8.00;72.90;;;;;;5077918;28;20020;-77
2021/01/24 11:59:25;;;;;;;1.05;1.05;;;8.10;72.60;;;;;;5083379;28;20035;-77
2021/01/24 12:01:50;;;;;;;1.15;1.02;;;8.20;73.30;;;;;;5084964;28;20024;-77
2021/01/24 12:04:16;;;;;;;2.25;0.88;;;8.30;72.30;;;;;;5082316;28;20078;-77
2021/01/24 12:06:42;;;;;;;2.10;1.90;;;8.30;69.30;;;;;;5072320;28;20020;-77
2021/01/24 12:09:08;;;;;;;2.83;1.73;;;8.50;66.10;;;;;;5069075;28;20032;-77
2021/01/24 12:11:35;;;;;;;2.50;2.30;;;8.50;65.60;;;;;;5081715;28;20024;-77
2021/01/24 12:14:02;;;;;;;3.50;2.45;;;8.50;64.90;;;;;;5078997;28;20489;-77
2021/01/24 12:16:27;;;;;;;1.20;1.15;;;8.60;64.00;;;;;;5080862;28;20028;-77
2021/01/24 12:18:53;;;;;;;0.95;0.95;;;8.70;63.80;;;;;;5069746;28;20023;-77
2021/01/24 12:21:18;;;;;;;0.70;0.70;;;8.70;60.10;;;;;;5073150;28;20551;-77
2021/01/24 12:23:44;;;;;;;0.70;0.70;;;8.80;61.40;;;;;;5066679;28;20040;-77
2021/01/24 12:26:10;;;;;;;0.70;0.70;;;8.80;60.90;;;;;;5068932;28;20086;-80
2021/01/24 12:28:35;;;;;;;0.80;0.80;;;8.80;59.50;;;;;;5065354;28;20082;-80
2021/01/24 12:31:01;;;;;;;0.60;0.60;;;8.90;58.60;;;;;;5069220;28;20141;-80
2021/01/24 12:33:27;;;;;;;1.10;1.00;;;8.90;58.50;;;;;;5067298;28;20028;-80
2021/01/24 12:35:52;;;;;;;0.57;0.57;;;8.90;59.80;;;;;;5070126;28;20031;-81
2021/01/24 12:38:18;;;;;;;1.23;1.13;;;8.90;57.60;;;;;;5067903;28;20025;-80
2021/01/24 12:40:43;;;;;;;1.05;0.95;;;8.90;58.30;;;;;;5068634;28;20021;-79
2021/01/24 12:43:09;;;;;;;1.27;0.80;;;9.00;55.50;;;;;;5073735;28;20051;-80
2021/01/24 12:45:35;;;;;;;1.40;1.30;;;9.00;56.40;;;;;;5073431;28;20020;-80
2021/01/24 12:48:01;;;;;;;0.70;0.70;;;9.00;56.50;;;;;;5081910;28;20047;-80
2021/01/24 12:50:26;;;;;;;1.15;1.05;;;9.10;56.10;;;;;;5072553;28;20024;-80
2021/01/24 12:52:52;;;;;;;0.70;0.70;;;9.10;57.10;;;;;;5068734;28;20028;-80
2021/01/24 12:55:18;;;;;;;2.22;1.20;;;9.10;54.00;;;;;;5071652;28;20024;-80
2021/01/24 12:57:43;;;;;;;1.27;1.17;;;9.10;55.50;;;;;;5083245;28;20016;-80